createdAt,value
2017-11-17T00:02:16.663Z,22.52
2017-11-17T00:04:44.218Z,22.42
2017-11-17T00:07:11.742Z,22.55
2017-11-17T00:09:39.295Z,21.67
2017-11-17T00:12:06.815Z,22.30
2017-11-17T00:14:34.383Z,22.95
2017-11-17T00:17:01.912Z,22.95
2017-11-17T00:19:29.437Z,22.20
2017-11-17T00:21:56.996Z,21.17
2017-11-17T00:24:24.517Z,20.55
2017-11-17T00:26:52.448Z,22.67
2017-11-17T00:29:19.981Z,23.33
2017-11-17T00:31:47.551Z,22.52
2017-11-17T00:34:15.071Z,20.83
2017-11-17T00:36:42.999Z,22.08
2017-11-17T00:39:10.548Z,22.87
2017-11-17T00:41:38.063Z,21.75
2017-11-17T00:44:06.001Z,21.60
2017-11-17T00:46:33.509Z,22.48
2017-11-17T00:49:01.075Z,21.05
2017-11-17T00:51:28.592Z,20.70
2017-11-17T00:53:56.138Z,22.25
2017-11-17T00:56:23.684Z,23.25
2017-11-17T00:58:51.591Z,23.10
2017-11-17T01:01:19.125Z,24.12
2017-11-17T01:03:46.641Z,23.42
2017-11-17T01:06:14.572Z,22.62
2017-11-17T01:08:42.092Z,22.65
2017-11-17T01:11:09.600Z,22.70
2017-11-17T01:13:37.161Z,23.75
2017-11-17T01:16:04.694Z,22.45
2017-11-17T01:18:32.252Z,22.80
2017-11-17T01:20:59.789Z,23.10
2017-11-17T01:23:27.360Z,22.90
2017-11-17T01:25:54.884Z,22.10
2017-11-17T01:28:22.414Z,24.55
2017-11-17T01:30:50.345Z,24.25
2017-11-17T01:33:17.923Z,24.63
2017-11-17T01:35:45.493Z,24.25
2017-11-17T01:38:13.009Z,23.65
2017-11-17T01:40:40.551Z,24.33
2017-11-17T01:43:08.066Z,23.30
2017-11-17T01:45:35.995Z,24.95
2017-11-17T01:48:03.540Z,24.83
2017-11-17T01:50:31.458Z,24.20
2017-11-17T01:52:59.011Z,25.08
2017-11-17T01:55:26.947Z,26.00
2017-11-17T01:57:54.520Z,24.33
2017-11-17T02:00:22.050Z,26.35
2017-11-17T02:02:49.561Z,27.62
2017-11-17T02:05:17.492Z,27.15
2017-11-17T02:07:45.020Z,29.20
2017-11-17T02:10:12.981Z,27.95
2017-11-17T02:12:40.502Z,27.98
2017-11-17T02:15:08.091Z,29.15
2017-11-17T02:17:35.624Z,28.62
2017-11-17T02:20:03.140Z,30.40
2017-11-17T02:22:30.685Z,33.05
2017-11-17T02:24:58.214Z,30.67
2017-11-17T02:27:25.751Z,32.85
2017-11-17T02:29:53.274Z,33.35
2017-11-17T02:32:20.837Z,31.58
2017-11-17T02:34:48.372Z,33.72
2017-11-17T02:37:16.292Z,33.30
2017-11-17T02:39:43.832Z,32.75
2017-11-17T02:42:11.345Z,33.85
2017-11-17T02:44:39.281Z,31.10
2017-11-17T02:47:06.802Z,32.85
2017-11-17T02:49:34.386Z,33.65
2017-11-17T02:52:02.308Z,33.45
2017-11-17T02:54:30.224Z,33.75
2017-11-17T02:56:58.149Z,35.28
2017-11-17T02:59:25.670Z,35.90
2017-11-17T03:01:53.209Z,36.15
2017-11-17T03:04:20.728Z,37.00
2017-11-17T03:06:48.273Z,37.03
2017-11-17T03:09:15.861Z,37.72
2017-11-17T03:11:43.383Z,34.67
2017-11-17T03:14:10.928Z,38.72
2017-11-17T03:16:38.451Z,39.05
2017-11-17T03:19:06.001Z,39.63
2017-11-17T03:21:33.532Z,39.78
2017-11-17T03:24:01.157Z,40.85
2017-11-17T03:26:29.078Z,36.28
2017-11-17T03:28:56.608Z,38.83
2017-11-17T03:31:24.168Z,37.85
2017-11-17T03:33:51.694Z,39.88
2017-11-17T03:36:19.642Z,40.78
2017-11-17T03:38:47.166Z,36.75
2017-11-17T03:41:14.735Z,38.50
2017-11-17T03:43:42.252Z,38.67
2017-11-17T03:46:09.781Z,40.65
2017-11-17T03:48:37.334Z,41.20
2017-11-17T03:51:05.248Z,40.50
2017-11-17T03:53:32.801Z,42.08
2017-11-17T03:56:00.321Z,45.03
2017-11-17T03:58:27.892Z,46.28
2017-11-17T04:00:55.409Z,47.33
2017-11-17T04:03:22.941Z,48.40
2017-11-17T04:05:50.478Z,51.92
2017-11-17T04:08:18.011Z,50.33
2017-11-17T04:10:45.589Z,45.83
2017-11-17T04:13:13.139Z,49.30
2017-11-17T04:15:40.716Z,47.20
2017-11-17T04:18:08.238Z,45.17
2017-11-17T04:20:35.754Z,47.53
2017-11-17T04:23:03.288Z,48.55
2017-11-17T04:25:30.805Z,49.15
2017-11-17T04:27:58.359Z,48.50
2017-11-17T04:30:25.901Z,47.88
2017-11-17T04:32:53.472Z,48.55
2017-11-17T04:35:20.987Z,48.35
2017-11-17T04:37:48.505Z,48.72
2017-11-17T04:40:16.069Z,51.72
2017-11-17T04:42:43.595Z,54.70
2017-11-17T04:45:11.136Z,49.92
2017-11-17T04:47:38.663Z,56.58
2017-11-17T04:50:06.606Z,56.20
2017-11-17T04:52:34.127Z,53.22
2017-11-17T04:55:01.691Z,59.50
2017-11-17T04:57:29.224Z,52.58
2017-11-17T04:59:57.178Z,57.85
2017-11-17T05:02:24.717Z,51.05
2017-11-17T05:04:52.262Z,60.92
2017-11-17T05:07:19.796Z,60.08
2017-11-17T05:09:47.333Z,61.63
2017-11-17T05:12:14.859Z,50.83
2017-11-17T05:14:42.423Z,55.12
2017-11-17T05:17:10.366Z,58.45
2017-11-17T05:19:37.964Z,55.78
2017-11-17T05:22:05.503Z,52.85
2017-11-17T05:24:33.024Z,58.08
2017-11-17T05:27:00.569Z,61.42
2017-11-17T05:29:28.496Z,57.67
2017-11-17T05:31:56.059Z,56.78
2017-11-17T05:34:23.576Z,50.15
2017-11-17T05:36:51.163Z,61.22
2017-11-17T05:39:18.693Z,48.03
2017-11-17T05:41:46.247Z,40.88
2017-11-17T05:44:13.775Z,51.65
2017-11-17T05:46:41.340Z,48.80
2017-11-17T05:49:08.873Z,46.75
2017-11-17T05:51:36.823Z,39.10
2017-11-17T05:54:04.360Z,49.67
2017-11-17T05:56:31.906Z,44.22
2017-11-17T05:58:59.433Z,53.10
2017-11-17T06:01:26.989Z,70.22
2017-11-17T06:03:54.520Z,58.13
2017-11-17T06:06:22.069Z,42.90
2017-11-17T06:08:49.632Z,54.22
2017-11-17T06:11:17.180Z,51.75
2017-11-17T06:13:44.738Z,62.20
2017-11-17T06:16:12.283Z,62.97
2017-11-17T06:18:39.824Z,55.88
2017-11-17T06:21:07.360Z,49.78
2017-11-17T06:23:34.874Z,55.17
2017-11-17T06:26:02.413Z,48.85
2017-11-17T06:28:29.947Z,46.00
2017-11-17T06:30:57.501Z,43.25
2017-11-17T06:33:25.015Z,39.97
2017-11-17T06:35:52.545Z,55.12
2017-11-17T06:38:20.072Z,60.17
2017-11-17T06:40:47.623Z,63.67
2017-11-17T06:43:15.171Z,60.08
2017-11-17T06:45:42.708Z,60.38
2017-11-17T06:48:10.251Z,61.25
2017-11-17T06:50:37.769Z,60.20
2017-11-17T06:53:05.310Z,59.78
2017-11-17T06:55:32.857Z,49.50
2017-11-17T06:58:00.389Z,57.97
2017-11-17T07:00:27.921Z,56.45
2017-11-17T07:02:55.449Z,51.75
2017-11-17T07:05:23.392Z,52.88
2017-11-17T07:07:50.945Z,55.72
2017-11-17T07:10:18.475Z,53.20
2017-11-17T07:12:46.083Z,52.85
2017-11-17T07:15:13.637Z,51.15
2017-11-17T07:17:41.211Z,50.25
2017-11-17T07:20:08.747Z,48.87
2017-11-17T07:22:36.272Z,46.25
2017-11-17T07:25:03.808Z,49.05
2017-11-17T07:27:31.346Z,48.47
2017-11-17T07:29:58.865Z,48.38
2017-11-17T07:32:26.521Z,43.28
2017-11-17T07:34:54.056Z,41.25
2017-11-17T07:37:21.589Z,42.70
2017-11-17T07:39:49.156Z,42.80
2017-11-17T07:42:17.105Z,38.45
2017-11-17T07:44:44.648Z,38.45
2017-11-17T07:47:12.198Z,36.38
2017-11-17T07:49:39.729Z,33.58
2017-11-17T07:52:07.283Z,33.20
2017-11-17T07:54:34.815Z,30.23
2017-11-17T07:57:02.346Z,30.10
2017-11-17T07:59:29.875Z,28.73
2017-11-17T08:01:57.405Z,27.25
2017-11-17T08:04:24.927Z,29.17
2017-11-17T08:06:52.457Z,28.45
2017-11-17T08:09:20.004Z,29.87
2017-11-17T08:11:47.533Z,24.87
2017-11-17T08:14:15.082Z,25.70
2017-11-17T08:16:42.611Z,24.77
2017-11-17T08:19:10.145Z,21.08
2017-11-17T08:21:37.685Z,20.27
2017-11-17T08:24:05.222Z,19.30
2017-11-17T08:26:32.734Z,20.52
2017-11-17T08:29:00.260Z,20.98
2017-11-17T08:31:28.168Z,20.60
2017-11-17T08:33:55.692Z,19.02
2017-11-17T08:36:23.227Z,18.90
2017-11-17T08:38:51.206Z,18.90
2017-11-17T08:41:18.714Z,18.67
2017-11-17T08:43:46.655Z,18.30
2017-11-17T08:46:14.168Z,17.80
2017-11-17T08:48:41.707Z,17.80
2017-11-17T08:51:09.238Z,17.23
2017-11-17T08:53:36.802Z,18.85
2017-11-17T08:56:04.323Z,18.23
2017-11-17T08:58:31.854Z,17.98
2017-11-17T09:00:59.780Z,15.57
2017-11-17T09:03:27.313Z,17.42
2017-11-17T09:05:54.837Z,15.50
2017-11-17T09:08:22.375Z,14.35
2017-11-17T09:10:49.887Z,14.75
2017-11-17T09:13:17.829Z,15.48
2017-11-17T09:15:45.347Z,15.88
2017-11-17T09:18:12.903Z,15.63
2017-11-17T09:20:40.436Z,15.18
2017-11-17T09:23:08.361Z,14.87
2017-11-17T09:25:35.922Z,13.43
2017-11-17T09:28:03.483Z,13.00
2017-11-17T09:30:31.055Z,13.73
2017-11-17T09:32:58.600Z,13.45
2017-11-17T09:35:26.189Z,14.15
2017-11-17T09:37:53.719Z,12.98
2017-11-17T09:40:21.255Z,15.68
2017-11-17T09:42:48.784Z,12.15
2017-11-17T09:45:16.373Z,13.15
2017-11-17T09:47:43.903Z,13.73
2017-11-17T09:50:11.508Z,11.82
2017-11-17T09:52:39.030Z,12.40
2017-11-17T09:55:06.582Z,12.55
2017-11-17T09:57:34.099Z,11.95
2017-11-17T10:00:01.633Z,11.20
2017-11-17T10:02:29.163Z,11.90
2017-11-17T10:04:56.710Z,12.35
2017-11-17T10:07:24.231Z,12.80
2017-11-17T10:09:52.164Z,11.15
2017-11-17T10:12:19.701Z,11.95
2017-11-17T10:14:48.120Z,11.60
2017-11-17T10:17:15.681Z,11.38
2017-11-17T10:19:43.213Z,11.25
2017-11-17T10:22:11.143Z,11.65
2017-11-17T10:24:38.712Z,11.50
2017-11-17T10:27:06.236Z,11.32
2017-11-17T10:29:33.761Z,9.40
2017-11-17T10:32:01.698Z,9.07
2017-11-17T10:34:29.238Z,8.60
2017-11-17T10:36:57.168Z,9.23
2017-11-17T10:39:24.709Z,10.00
2017-11-17T10:41:52.239Z,9.77
2017-11-17T10:44:19.800Z,8.65
2017-11-17T10:46:47.326Z,8.30
2017-11-17T10:49:14.859Z,8.65
2017-11-17T10:51:42.423Z,7.50
2017-11-17T10:54:09.942Z,6.80
2017-11-17T10:56:37.497Z,7.82
2017-11-17T10:59:05.021Z,5.78
2017-11-17T11:01:32.567Z,5.75
2017-11-17T11:04:00.101Z,5.35
2017-11-17T11:06:27.645Z,5.00
2017-11-17T11:08:55.169Z,5.40
2017-11-17T11:11:28.330Z,4.90
2017-11-17T11:13:55.849Z,6.50
2017-11-17T11:16:23.396Z,5.03
2017-11-17T11:18:50.921Z,6.12
2017-11-17T11:21:18.453Z,5.50
2017-11-17T11:23:46.873Z,5.60
2017-11-17T11:26:14.432Z,5.00
2017-11-17T11:28:41.950Z,4.32
2017-11-17T11:31:09.496Z,3.65
2017-11-17T11:33:37.060Z,3.67
2017-11-17T11:36:04.601Z,3.35
2017-11-17T11:38:32.105Z,3.45
2017-11-17T11:41:00.856Z,3.22
2017-11-17T11:43:28.466Z,3.62
2017-11-17T11:45:56.000Z,3.50
2017-11-17T11:48:23.530Z,3.55
2017-11-17T11:50:51.095Z,3.65
2017-11-17T11:53:18.609Z,4.12
2017-11-17T11:55:46.610Z,3.80
2017-11-17T11:58:14.142Z,4.25
2017-11-17T12:00:41.695Z,3.62
2017-11-17T12:03:09.250Z,3.80
2017-11-17T12:05:38.038Z,2.87
2017-11-17T12:08:05.581Z,2.90
2017-11-17T12:10:33.114Z,2.67
2017-11-17T12:13:00.647Z,3.87
2017-11-17T12:15:28.192Z,3.30
2017-11-17T12:17:55.764Z,3.70
2017-11-17T12:20:23.350Z,3.75
2017-11-17T12:22:50.906Z,2.28
2017-11-17T12:25:18.438Z,5.00
2017-11-17T12:27:46.153Z,6.20
2017-11-17T12:30:13.689Z,5.18
2017-11-17T12:32:41.218Z,2.75
2017-11-17T12:35:08.757Z,2.92
2017-11-17T12:37:36.323Z,3.62
2017-11-17T12:40:03.895Z,2.50
2017-11-17T12:42:31.460Z,2.85
2017-11-17T12:44:59.022Z,3.30
2017-11-17T12:47:26.553Z,3.03
2017-11-17T12:49:54.085Z,2.47
2017-11-17T12:52:21.610Z,2.90
2017-11-17T12:54:49.165Z,3.08
2017-11-17T12:57:17.474Z,3.42
2017-11-17T12:59:45.024Z,3.90
2017-11-17T13:02:12.972Z,3.08
2017-11-17T13:04:40.488Z,3.55
2017-11-17T13:07:09.167Z,3.70
2017-11-17T13:09:36.865Z,3.12
2017-11-17T13:12:04.400Z,3.15
2017-11-17T13:14:31.911Z,2.65
2017-11-17T13:16:59.442Z,3.12
2017-11-17T13:19:26.959Z,2.42
2017-11-17T13:21:54.485Z,2.62
2017-11-17T13:24:21.992Z,3.50
2017-11-17T13:26:49.540Z,3.67
2017-11-17T13:29:17.056Z,6.15
2017-11-17T13:31:44.585Z,6.00
2017-11-17T13:34:12.098Z,3.87
2017-11-17T13:36:39.696Z,3.55
2017-11-17T13:39:07.231Z,3.53
2017-11-17T13:41:34.771Z,7.37
2017-11-17T13:44:02.325Z,4.07
2017-11-17T13:46:29.923Z,4.10
2017-11-17T13:48:57.874Z,3.35
2017-11-17T13:51:25.395Z,3.78
2017-11-17T13:53:52.947Z,3.35
2017-11-17T13:56:20.499Z,2.90
2017-11-17T13:58:48.044Z,3.85
2017-11-17T14:01:15.549Z,2.30
2017-11-17T14:03:43.099Z,3.00
2017-11-17T14:06:11.002Z,5.00
2017-11-17T14:08:38.591Z,4.40
2017-11-17T14:11:06.109Z,3.22
2017-11-17T14:13:33.656Z,3.25
2017-11-17T14:16:01.192Z,4.22
2017-11-17T14:18:28.731Z,3.00
2017-11-17T14:20:56.247Z,4.57
2017-11-17T14:23:23.785Z,5.12
2017-11-17T14:25:51.294Z,2.75
2017-11-17T14:28:19.213Z,2.70
2017-11-17T14:30:46.740Z,3.10
2017-11-17T14:33:14.291Z,3.10
2017-11-17T14:35:41.801Z,2.50
2017-11-17T14:38:09.344Z,2.70
2017-11-17T14:40:36.849Z,2.25
2017-11-17T14:43:04.391Z,2.72
2017-11-17T14:45:31.924Z,2.28
2017-11-17T14:47:59.467Z,2.83
2017-11-17T14:50:27.380Z,2.25
2017-11-17T14:52:54.927Z,2.03
2017-11-17T14:55:22.435Z,2.33
2017-11-17T14:57:50.375Z,3.17
2017-11-17T15:00:17.911Z,4.35
2017-11-17T15:02:45.495Z,5.87
2017-11-17T15:05:13.021Z,4.37
2017-11-17T15:07:40.558Z,2.83
2017-11-17T15:10:08.110Z,3.20
2017-11-17T15:12:35.700Z,4.05
2017-11-17T15:15:03.274Z,2.87
2017-11-17T15:17:30.807Z,1.77
2017-11-17T15:19:58.371Z,2.55
2017-11-17T15:22:25.897Z,1.80
2017-11-17T15:24:53.422Z,2.30
2017-11-17T15:27:20.944Z,2.30
2017-11-17T15:29:48.879Z,2.62
2017-11-17T15:32:16.385Z,2.30
2017-11-17T15:34:43.949Z,3.97
2017-11-17T15:37:11.466Z,11.05
2017-11-17T15:39:38.999Z,9.48
2017-11-17T15:42:06.535Z,8.32
2017-11-17T15:44:34.062Z,4.82
2017-11-17T15:47:01.569Z,3.75
2017-11-17T15:49:29.113Z,5.22
2017-11-17T15:51:56.650Z,5.57
2017-11-17T15:54:24.177Z,5.65
2017-11-17T15:56:51.722Z,5.10
2017-11-17T15:59:19.260Z,5.40
2017-11-17T16:01:47.178Z,3.50
2017-11-17T16:04:14.717Z,4.53
2017-11-17T16:06:42.260Z,6.03
2017-11-17T16:09:09.794Z,4.65
2017-11-17T16:11:37.727Z,4.18
2017-11-17T16:14:05.265Z,4.80
2017-11-17T16:16:32.791Z,5.85
2017-11-17T16:19:00.340Z,5.10
2017-11-17T16:21:27.874Z,6.45
2017-11-17T16:23:55.441Z,6.87
2017-11-17T16:26:23.367Z,6.68
2017-11-17T16:28:50.897Z,5.30
2017-11-17T16:31:18.448Z,6.70
2017-11-17T16:33:45.993Z,7.35
2017-11-17T16:36:13.636Z,7.15
2017-11-17T16:38:41.162Z,6.35
2017-11-17T16:41:08.702Z,6.93
2017-11-17T16:43:36.238Z,7.15
2017-11-17T16:46:03.804Z,7.37
2017-11-17T16:48:31.323Z,7.25
2017-11-17T16:50:58.846Z,7.40
2017-11-17T16:53:26.372Z,7.72
2017-11-17T16:55:53.923Z,10.85
2017-11-17T16:58:21.467Z,9.57
2017-11-17T17:00:49.017Z,8.40
2017-11-17T17:03:16.531Z,6.20
2017-11-17T17:05:44.064Z,7.43
2017-11-17T17:08:11.573Z,7.55
2017-11-17T17:10:39.141Z,7.90
2017-11-17T17:13:06.681Z,10.23
2017-11-17T17:15:34.287Z,7.62
2017-11-17T17:18:01.808Z,7.20
2017-11-17T17:20:29.359Z,8.15
2017-11-17T17:22:56.880Z,9.27
2017-11-17T17:25:24.436Z,9.05
2017-11-17T17:27:51.968Z,8.02
2017-11-17T17:30:19.508Z,9.45
2017-11-17T17:32:47.928Z,9.45
2017-11-17T17:35:15.488Z,11.70
2017-11-17T17:37:43.403Z,10.15
2017-11-17T17:40:10.937Z,10.65
2017-11-17T17:42:38.462Z,11.30
2017-11-17T17:45:06.035Z,12.07
2017-11-17T17:47:33.964Z,12.52
2017-11-17T17:50:01.523Z,13.82
2017-11-17T17:52:29.455Z,9.63
2017-11-17T17:54:56.996Z,8.35
2017-11-17T17:57:24.940Z,11.73
2017-11-17T17:59:52.517Z,11.77
2017-11-17T18:02:20.436Z,15.80
2017-11-17T18:04:47.960Z,15.75
2017-11-17T18:07:15.514Z,16.40
2017-11-17T18:09:43.044Z,14.15
2017-11-17T18:12:10.607Z,10.48
2017-11-17T18:14:38.264Z,9.98
2017-11-17T18:17:05.793Z,9.50
2017-11-17T18:19:33.316Z,16.30
2017-11-17T18:22:00.856Z,12.52
2017-11-17T18:24:28.378Z,15.55
2017-11-17T18:26:55.916Z,15.05
2017-11-17T18:29:23.427Z,13.10
2017-11-17T18:31:50.993Z,18.58
2017-11-17T18:34:18.545Z,14.07
2017-11-17T18:36:46.106Z,17.05
2017-11-17T18:39:13.695Z,19.92
2017-11-17T18:41:41.292Z,19.52
2017-11-17T18:44:09.234Z,16.37
2017-11-17T18:46:36.788Z,11.88
2017-11-17T18:49:04.346Z,13.18
2017-11-17T18:51:31.883Z,18.02
2017-11-17T18:53:59.397Z,21.58
2017-11-17T18:56:27.069Z,17.33
2017-11-17T18:58:54.560Z,22.77
2017-11-17T19:01:22.186Z,26.12
2017-11-17T19:03:49.673Z,16.08
2017-11-17T19:06:17.324Z,16.20
2017-11-17T19:08:44.804Z,13.65
2017-11-17T19:11:12.348Z,12.88
2017-11-17T19:13:39.908Z,14.55
2017-11-17T19:16:07.434Z,15.15
2017-11-17T19:18:34.980Z,24.42
2017-11-17T19:21:02.516Z,25.65
2017-11-17T19:23:30.067Z,25.15
2017-11-17T19:25:57.608Z,19.70
2017-11-17T19:28:25.156Z,14.55
2017-11-17T19:30:52.692Z,24.42
2017-11-17T19:33:20.238Z,29.20
2017-11-17T19:35:47.759Z,30.75
2017-11-17T19:38:15.315Z,29.10
2017-11-17T19:40:42.850Z,24.40
2017-11-17T19:43:10.804Z,20.02
2017-11-17T19:45:38.352Z,25.15
2017-11-17T19:48:05.911Z,14.38
2017-11-17T19:50:33.459Z,15.48
2017-11-17T19:53:00.991Z,23.48
2017-11-17T19:55:28.512Z,21.27
2017-11-17T19:57:56.067Z,22.65
2017-11-17T20:00:23.602Z,19.42
2017-11-17T20:02:51.160Z,19.10
2017-11-17T20:05:18.699Z,18.55
2017-11-17T20:07:46.249Z,17.02
2017-11-17T20:10:13.771Z,17.23
2017-11-17T20:12:41.308Z,15.40
2017-11-17T20:15:08.817Z,14.65
2017-11-17T20:17:36.358Z,10.77
2017-11-17T20:20:03.880Z,17.60
2017-11-17T20:22:31.434Z,34.65
2017-11-17T20:24:58.955Z,39.50
2017-11-17T20:27:26.493Z,37.42
2017-11-17T20:29:54.009Z,37.55
2017-11-17T20:32:21.545Z,29.73
2017-11-17T20:34:49.504Z,23.65
2017-11-17T20:37:17.041Z,13.93
2017-11-17T20:39:44.585Z,12.48
2017-11-17T20:42:12.116Z,11.23
2017-11-17T20:44:40.071Z,10.63
2017-11-17T20:47:07.596Z,30.65
2017-11-17T20:49:35.147Z,25.27
2017-11-17T20:52:03.112Z,25.27
2017-11-17T20:54:30.621Z,21.77
2017-11-17T20:56:58.155Z,21.62
2017-11-17T20:59:25.735Z,21.30
2017-11-17T21:01:53.270Z,18.58
2017-11-17T21:04:20.806Z,17.50
2017-11-17T21:06:48.316Z,19.45
2017-11-17T21:09:15.902Z,19.58
2017-11-17T21:11:43.481Z,17.70
2017-11-17T21:14:11.008Z,20.05
2017-11-17T21:16:38.782Z,20.55
2017-11-17T21:19:06.323Z,18.77
2017-11-17T21:21:33.840Z,15.45
2017-11-17T21:24:01.381Z,16.80
2017-11-17T21:26:28.913Z,17.45
2017-11-17T21:28:56.474Z,17.15
2017-11-17T21:31:24.004Z,18.08
2017-11-17T21:33:51.548Z,13.48
2017-11-17T21:36:19.080Z,14.00
2017-11-17T21:38:46.609Z,9.45
2017-11-17T21:41:14.131Z,10.30
2017-11-17T21:43:42.082Z,10.40
2017-11-17T21:46:09.595Z,12.55
2017-11-17T21:48:37.204Z,9.80
2017-11-17T21:51:04.776Z,11.32
2017-11-17T21:53:32.319Z,9.38
2017-11-17T21:55:59.841Z,13.07
2017-11-17T21:58:27.382Z,12.23
2017-11-17T22:00:55.499Z,12.18
2017-11-17T22:03:23.009Z,9.50
2017-11-17T22:05:50.557Z,14.23
2017-11-17T22:08:18.493Z,12.98
2017-11-17T22:10:46.068Z,11.48
2017-11-17T22:13:13.593Z,9.45
2017-11-17T22:15:41.132Z,9.40
2017-11-17T22:18:08.653Z,16.50
2017-11-17T22:20:36.270Z,21.60
2017-11-17T22:23:03.813Z,10.10
2017-11-17T22:25:31.365Z,10.90
2017-11-17T22:27:58.914Z,11.05
2017-11-17T22:30:26.432Z,11.98
2017-11-17T22:32:54.377Z,15.27
2017-11-17T22:35:21.933Z,17.20
2017-11-17T22:37:49.503Z,16.12
2017-11-17T22:40:17.408Z,14.32
2017-11-17T22:42:44.930Z,11.10
2017-11-17T22:45:12.500Z,11.65
2017-11-17T22:47:40.036Z,10.32
2017-11-17T22:50:07.571Z,14.32
2017-11-17T22:52:35.096Z,11.63
2017-11-17T22:55:03.056Z,9.50
2017-11-17T22:57:30.591Z,13.65
2017-11-17T22:59:58.124Z,11.43
2017-11-17T23:02:25.655Z,12.88
2017-11-17T23:04:53.609Z,12.73
2017-11-17T23:07:21.137Z,11.30
2017-11-17T23:09:49.067Z,11.40
2017-11-17T23:12:16.616Z,11.73
2017-11-17T23:14:44.141Z,22.60
2017-11-17T23:17:11.677Z,26.25
2017-11-17T23:19:39.208Z,18.52
2017-11-17T23:22:06.741Z,18.98
2017-11-17T23:24:34.266Z,23.38
2017-11-17T23:27:01.828Z,17.62
2017-11-17T23:29:29.385Z,14.05
2017-11-17T23:31:56.924Z,11.20
2017-11-17T23:34:24.846Z,10.90
2017-11-17T23:36:52.417Z,10.07
2017-11-17T23:39:19.930Z,17.90
2017-11-17T23:41:47.436Z,15.73
2017-11-17T23:44:14.963Z,14.32
2017-11-17T23:46:42.474Z,16.95
2017-11-17T23:49:10.000Z,17.58
2017-11-17T23:51:37.920Z,16.70
2017-11-17T23:54:05.494Z,13.65
2017-11-17T23:56:33.038Z,14.23
2017-11-17T23:59:00.576Z,18.27
